sensor_id;sensor_type;location;lat;lon;timestamp;P1;durP1;ratioP1;P2;durP2;ratioP2
9948;SDS011;5013;51.840;8.276;2023-03-20T00:03:54;51.97;;;29.60;;
9948;SDS011;5013;51.840;8.276;2023-03-20T00:06:25;48.03;;;28.97;;
9948;SDS011;5013;51.840;8.276;2023-03-20T00:08:53;48.50;;;29.60;;
9948;SDS011;5013;51.840;8.276;2023-03-20T00:13:51;50.03;;;28.50;;
9948;SDS011;5013;51.840;8.276;2023-03-20T00:16:18;52.17;;;29.07;;
9948;SDS011;5013;51.840;8.276;2023-03-20T00:18:45;50.40;;;28.27;;
9948;SDS011;5013;51.840;8.276;2023-03-20T00:21:19;54.70;;;29.57;;
9948;SDS011;5013;51.840;8.276;2023-03-20T00:23:45;48.23;;;28.70;;
9948;SDS011;5013;51.840;8.276;2023-03-20T00:26:12;57.87;;;30.33;;
9948;SDS011;5013;51.840;8.276;2023-03-20T00:28:40;50.60;;;28.50;;
9948;SDS011;5013;51.840;8.276;2023-03-20T00:33:56;61.60;;;31.37;;
9948;SDS011;5013;51.840;8.276;2023-03-20T00:36:24;57.37;;;30.30;;
9948;SDS011;5013;51.840;8.276;2023-03-20T00:38:50;56.73;;;30.07;;
9948;SDS011;5013;51.840;8.276;2023-03-20T00:41:21;58.13;;;29.97;;
9948;SDS011;5013;51.840;8.276;2023-03-20T00:43:48;59.00;;;30.03;;
9948;SDS011;5013;51.840;8.276;2023-03-20T00:46:16;62.20;;;30.80;;
9948;SDS011;5013;51.840;8.276;2023-03-20T00:48:42;57.10;;;29.00;;
9948;SDS011;5013;51.840;8.276;2023-03-20T00:51:08;63.40;;;32.23;;
9948;SDS011;5013;51.840;8.276;2023-03-20T00:53:34;54.37;;;30.17;;
9948;SDS011;5013;51.840;8.276;2023-03-20T00:56:00;60.17;;;30.80;;
9948;SDS011;5013;51.840;8.276;2023-03-20T00:58:26;62.17;;;32.80;;
9948;SDS011;5013;51.840;8.276;2023-03-20T01:00:52;61.87;;;31.13;;
9948;SDS011;5013;51.840;8.276;2023-03-20T01:03:19;57.83;;;31.33;;
9948;SDS011;5013;51.840;8.276;2023-03-20T01:05:47;60.63;;;32.00;;
9948;SDS011;5013;51.840;8.276;2023-03-20T01:08:21;62.67;;;32.27;;
9948;SDS011;5013;51.840;8.276;2023-03-20T01:10:49;60.27;;;31.33;;
9948;SDS011;5013;51.840;8.276;2023-03-20T01:15:46;65.43;;;33.60;;
9948;SDS011;5013;51.840;8.276;2023-03-20T01:18:13;60.07;;;31.70;;
9948;SDS011;5013;51.840;8.276;2023-03-20T01:20:40;62.27;;;33.53;;
9948;SDS011;5013;51.840;8.276;2023-03-20T01:23:06;68.83;;;32.50;;
9948;SDS011;5013;51.840;8.276;2023-03-20T01:25:32;61.20;;;31.47;;
9948;SDS011;5013;51.840;8.276;2023-03-20T01:27:58;60.40;;;31.87;;
9948;SDS011;5013;51.840;8.276;2023-03-20T01:30:25;63.83;;;32.40;;
9948;SDS011;5013;51.840;8.276;2023-03-20T01:32:53;60.20;;;33.10;;
9948;SDS011;5013;51.840;8.276;2023-03-20T01:35:20;59.60;;;31.07;;
9948;SDS011;5013;51.840;8.276;2023-03-20T01:37:48;65.80;;;32.60;;
9948;SDS011;5013;51.840;8.276;2023-03-20T01:43:13;58.47;;;31.50;;
9948;SDS011;5013;51.840;8.276;2023-03-20T01:45:55;62.40;;;32.17;;
9948;SDS011;5013;51.840;8.276;2023-03-20T01:48:22;71.90;;;34.97;;
9948;SDS011;5013;51.840;8.276;2023-03-20T01:50:51;62.53;;;33.37;;
9948;SDS011;5013;51.840;8.276;2023-03-20T01:53:20;66.53;;;31.70;;
9948;SDS011;5013;51.840;8.276;2023-03-20T01:55:49;60.17;;;33.07;;
9948;SDS011;5013;51.840;8.276;2023-03-20T01:58:23;66.23;;;32.77;;
9948;SDS011;5013;51.840;8.276;2023-03-20T02:00:52;72.40;;;33.77;;
9948;SDS011;5013;51.840;8.276;2023-03-20T02:03:18;67.57;;;33.13;;
9948;SDS011;5013;51.840;8.276;2023-03-20T02:05:45;66.20;;;33.10;;
9948;SDS011;5013;51.840;8.276;2023-03-20T02:08:14;62.43;;;31.47;;
9948;SDS011;5013;51.840;8.276;2023-03-20T02:10:55;66.57;;;33.10;;
9948;SDS011;5013;51.840;8.276;2023-03-20T02:13:24;69.30;;;33.13;;
9948;SDS011;5013;51.840;8.276;2023-03-20T02:15:55;62.03;;;32.83;;
9948;SDS011;5013;51.840;8.276;2023-03-20T02:18:23;70.03;;;35.77;;
9948;SDS011;5013;51.840;8.276;2023-03-20T02:34:40;79.43;;;45.63;;
9948;SDS011;5013;51.840;8.276;2023-03-20T02:37:23;87.50;;;45.37;;
9948;SDS011;5013;51.840;8.276;2023-03-20T02:43:01;84.83;;;43.73;;
9948;SDS011;5013;51.840;8.276;2023-03-20T02:45:47;84.20;;;46.13;;
9948;SDS011;5013;51.840;8.276;2023-03-20T02:48:32;86.33;;;46.43;;
9948;SDS011;5013;51.840;8.276;2023-03-20T02:56:35;93.13;;;47.97;;
9948;SDS011;5013;51.840;8.276;2023-03-20T03:02:38;95.43;;;49.57;;
9948;SDS011;5013;51.840;8.276;2023-03-20T03:05:15;93.57;;;49.53;;
9948;SDS011;5013;51.840;8.276;2023-03-20T03:07:45;92.37;;;51.37;;
9948;SDS011;5013;51.840;8.276;2023-03-20T03:10:15;92.17;;;50.03;;
9948;SDS011;5013;51.840;8.276;2023-03-20T03:12:45;77.33;;;45.90;;
9948;SDS011;5013;51.840;8.276;2023-03-20T03:15:14;84.87;;;45.67;;
9948;SDS011;5013;51.840;8.276;2023-03-20T03:17:44;69.80;;;42.53;;
9948;SDS011;5013;51.840;8.276;2023-03-20T03:20:19;64.83;;;40.97;;
9948;SDS011;5013;51.840;8.276;2023-03-20T03:22:57;65.90;;;40.60;;
9948;SDS011;5013;51.840;8.276;2023-03-20T03:25:24;65.47;;;41.07;;
9948;SDS011;5013;51.840;8.276;2023-03-20T03:27:59;65.40;;;39.43;;
9948;SDS011;5013;51.840;8.276;2023-03-20T03:30:32;63.47;;;39.40;;
9948;SDS011;5013;51.840;8.276;2023-03-20T03:35:31;68.07;;;40.37;;
9948;SDS011;5013;51.840;8.276;2023-03-20T03:37:58;61.23;;;39.53;;
9948;SDS011;5013;51.840;8.276;2023-03-20T03:45:56;65.13;;;40.87;;
9948;SDS011;5013;51.840;8.276;2023-03-20T03:48:44;58.70;;;37.90;;
9948;SDS011;5013;51.840;8.276;2023-03-20T03:51:18;55.93;;;37.47;;
9948;SDS011;5013;51.840;8.276;2023-03-20T03:53:48;71.43;;;40.73;;
9948;SDS011;5013;51.840;8.276;2023-03-20T03:56:19;57.70;;;37.73;;
9948;SDS011;5013;51.840;8.276;2023-03-20T03:58:48;65.63;;;39.17;;
9948;SDS011;5013;51.840;8.276;2023-03-20T04:01:17;65.83;;;40.23;;
9948;SDS011;5013;51.840;8.276;2023-03-20T04:03:46;58.13;;;39.70;;
9948;SDS011;5013;51.840;8.276;2023-03-20T04:06:16;58.17;;;39.60;;
9948;SDS011;5013;51.840;8.276;2023-03-20T04:08:43;57.63;;;38.70;;
9948;SDS011;5013;51.840;8.276;2023-03-20T04:11:27;57.80;;;39.50;;
9948;SDS011;5013;51.840;8.276;2023-03-20T04:13:53;61.13;;;38.60;;
9948;SDS011;5013;51.840;8.276;2023-03-20T04:16:20;58.93;;;38.77;;
9948;SDS011;5013;51.840;8.276;2023-03-20T04:18:47;60.83;;;39.90;;
9948;SDS011;5013;51.840;8.276;2023-03-20T04:21:13;57.47;;;39.27;;
9948;SDS011;5013;51.840;8.276;2023-03-20T04:23:40;51.23;;;36.20;;
9948;SDS011;5013;51.840;8.276;2023-03-20T04:26:06;54.67;;;36.83;;
9948;SDS011;5013;51.840;8.276;2023-03-20T04:28:31;53.97;;;37.43;;
9948;SDS011;5013;51.840;8.276;2023-03-20T04:30:58;51.97;;;36.17;;
9948;SDS011;5013;51.840;8.276;2023-03-20T04:33:25;57.47;;;38.43;;
9948;SDS011;5013;51.840;8.276;2023-03-20T04:35:52;50.50;;;35.93;;
9948;SDS011;5013;51.840;8.276;2023-03-20T04:38:19;53.90;;;36.57;;
9948;SDS011;5013;51.840;8.276;2023-03-20T04:40:45;49.47;;;34.03;;
9948;SDS011;5013;51.840;8.276;2023-03-20T04:43:12;47.77;;;34.67;;
9948;SDS011;5013;51.840;8.276;2023-03-20T04:45:38;51.57;;;36.13;;
9948;SDS011;5013;51.840;8.276;2023-03-20T04:48:04;48.33;;;35.37;;
9948;SDS011;5013;51.840;8.276;2023-03-20T04:50:30;48.97;;;36.00;;
9948;SDS011;5013;51.840;8.276;2023-03-20T04:52:55;50.17;;;37.13;;
9948;SDS011;5013;51.840;8.276;2023-03-20T04:55:21;47.97;;;36.03;;
9948;SDS011;5013;51.840;8.276;2023-03-20T04:57:47;48.73;;;36.27;;
9948;SDS011;5013;51.840;8.276;2023-03-20T05:00:13;48.67;;;37.17;;
9948;SDS011;5013;51.840;8.276;2023-03-20T05:02:39;56.03;;;38.60;;
9948;SDS011;5013;51.840;8.276;2023-03-20T05:05:05;51.37;;;36.87;;
9948;SDS011;5013;51.840;8.276;2023-03-20T05:07:30;53.80;;;36.20;;
9948;SDS011;5013;51.840;8.276;2023-03-20T05:09:56;48.03;;;35.57;;
9948;SDS011;5013;51.840;8.276;2023-03-20T05:12:24;51.17;;;36.57;;
9948;SDS011;5013;51.840;8.276;2023-03-20T05:14:53;54.07;;;37.97;;
9948;SDS011;5013;51.840;8.276;2023-03-20T05:17:21;51.90;;;37.70;;
9948;SDS011;5013;51.840;8.276;2023-03-20T05:19:48;58.47;;;38.90;;
9948;SDS011;5013;51.840;8.276;2023-03-20T05:22:14;48.37;;;34.73;;
9948;SDS011;5013;51.840;8.276;2023-03-20T05:24:40;50.83;;;36.30;;
9948;SDS011;5013;51.840;8.276;2023-03-20T05:27:06;55.73;;;38.20;;
9948;SDS011;5013;51.840;8.276;2023-03-20T05:29:32;52.80;;;37.70;;
9948;SDS011;5013;51.840;8.276;2023-03-20T05:31:57;58.17;;;40.00;;
9948;SDS011;5013;51.840;8.276;2023-03-20T05:34:23;52.33;;;37.20;;
9948;SDS011;5013;51.840;8.276;2023-03-20T05:36:49;55.27;;;39.13;;
9948;SDS011;5013;51.840;8.276;2023-03-20T05:39:15;55.20;;;37.60;;
9948;SDS011;5013;51.840;8.276;2023-03-20T05:41:40;52.47;;;37.37;;
9948;SDS011;5013;51.840;8.276;2023-03-20T05:44:06;58.63;;;40.40;;
9948;SDS011;5013;51.840;8.276;2023-03-20T05:46:32;54.60;;;37.43;;
9948;SDS011;5013;51.840;8.276;2023-03-20T05:48:57;57.10;;;39.73;;
9948;SDS011;5013;51.840;8.276;2023-03-20T05:51:23;55.67;;;39.63;;
9948;SDS011;5013;51.840;8.276;2023-03-20T05:53:48;57.73;;;37.73;;
9948;SDS011;5013;51.840;8.276;2023-03-20T05:56:14;52.17;;;38.37;;
9948;SDS011;5013;51.840;8.276;2023-03-20T05:58:40;57.20;;;39.23;;
9948;SDS011;5013;51.840;8.276;2023-03-20T06:01:06;57.60;;;40.20;;
9948;SDS011;5013;51.840;8.276;2023-03-20T06:03:31;55.23;;;39.67;;
9948;SDS011;5013;51.840;8.276;2023-03-20T06:05:57;49.97;;;37.53;;
9948;SDS011;5013;51.840;8.276;2023-03-20T06:08:23;51.67;;;36.90;;
9948;SDS011;5013;51.840;8.276;2023-03-20T06:10:51;50.73;;;36.83;;
9948;SDS011;5013;51.840;8.276;2023-03-20T06:13:17;49.70;;;35.50;;
9948;SDS011;5013;51.840;8.276;2023-03-20T06:15:43;47.47;;;32.73;;
9948;SDS011;5013;51.840;8.276;2023-03-20T06:18:08;44.10;;;32.83;;
9948;SDS011;5013;51.840;8.276;2023-03-20T06:20:34;43.07;;;30.00;;
9948;SDS011;5013;51.840;8.276;2023-03-20T06:22:59;37.90;;;27.90;;
9948;SDS011;5013;51.840;8.276;2023-03-20T06:25:25;42.67;;;29.87;;
9948;SDS011;5013;51.840;8.276;2023-03-20T06:27:51;39.13;;;29.60;;
9948;SDS011;5013;51.840;8.276;2023-03-20T06:30:17;38.33;;;28.37;;
9948;SDS011;5013;51.840;8.276;2023-03-20T06:32:43;34.13;;;26.67;;
9948;SDS011;5013;51.840;8.276;2023-03-20T06:35:10;38.13;;;26.40;;
9948;SDS011;5013;51.840;8.276;2023-03-20T06:37:36;34.33;;;25.30;;
9948;SDS011;5013;51.840;8.276;2023-03-20T06:40:02;33.83;;;24.70;;
9948;SDS011;5013;51.840;8.276;2023-03-20T06:42:29;30.43;;;22.60;;
9948;SDS011;5013;51.840;8.276;2023-03-20T06:44:55;35.90;;;24.83;;
9948;SDS011;5013;51.840;8.276;2023-03-20T06:47:21;34.37;;;24.30;;
9948;SDS011;5013;51.840;8.276;2023-03-20T06:49:47;28.77;;;22.23;;
9948;SDS011;5013;51.840;8.276;2023-03-20T06:52:17;29.13;;;21.93;;
9948;SDS011;5013;51.840;8.276;2023-03-20T06:54:44;29.20;;;20.93;;
9948;SDS011;5013;51.840;8.276;2023-03-20T06:57:10;26.90;;;19.90;;
9948;SDS011;5013;51.840;8.276;2023-03-20T06:59:35;28.33;;;20.73;;
9948;SDS011;5013;51.840;8.276;2023-03-20T07:02:02;27.97;;;20.30;;
9948;SDS011;5013;51.840;8.276;2023-03-20T07:04:28;26.53;;;21.27;;
9948;SDS011;5013;51.840;8.276;2023-03-20T07:06:53;31.13;;;22.43;;
9948;SDS011;5013;51.840;8.276;2023-03-20T07:09:19;28.30;;;22.17;;
9948;SDS011;5013;51.840;8.276;2023-03-20T07:11:46;27.20;;;19.90;;
9948;SDS011;5013;51.840;8.276;2023-03-20T07:14:11;29.37;;;20.33;;
9948;SDS011;5013;51.840;8.276;2023-03-20T07:16:37;25.17;;;19.10;;
9948;SDS011;5013;51.840;8.276;2023-03-20T07:19:03;26.13;;;19.17;;
9948;SDS011;5013;51.840;8.276;2023-03-20T07:21:28;24.83;;;18.23;;
9948;SDS011;5013;51.840;8.276;2023-03-20T07:23:54;23.20;;;18.20;;
9948;SDS011;5013;51.840;8.276;2023-03-20T07:26:20;22.43;;;16.43;;
9948;SDS011;5013;51.840;8.276;2023-03-20T07:28:45;23.73;;;17.93;;
9948;SDS011;5013;51.840;8.276;2023-03-20T07:31:18;21.00;;;16.93;;
9948;SDS011;5013;51.840;8.276;2023-03-20T07:33:45;18.73;;;15.70;;
9948;SDS011;5013;51.840;8.276;2023-03-20T07:36:11;20.80;;;16.53;;
9948;SDS011;5013;51.840;8.276;2023-03-20T07:38:37;21.90;;;16.93;;
9948;SDS011;5013;51.840;8.276;2023-03-20T07:41:02;28.10;;;19.17;;
9948;SDS011;5013;51.840;8.276;2023-03-20T07:43:28;22.13;;;18.27;;
9948;SDS011;5013;51.840;8.276;2023-03-20T07:45:53;22.00;;;17.50;;
9948;SDS011;5013;51.840;8.276;2023-03-20T07:48:19;24.37;;;18.63;;
9948;SDS011;5013;51.840;8.276;2023-03-20T07:50:44;28.00;;;19.17;;
9948;SDS011;5013;51.840;8.276;2023-03-20T07:53:10;23.90;;;18.13;;
9948;SDS011;5013;51.840;8.276;2023-03-20T07:55:36;25.17;;;20.17;;
9948;SDS011;5013;51.840;8.276;2023-03-20T07:58:01;24.67;;;19.83;;
9948;SDS011;5013;51.840;8.276;2023-03-20T08:00:27;28.97;;;19.67;;
9948;SDS011;5013;51.840;8.276;2023-03-20T08:02:52;29.33;;;22.77;;
9948;SDS011;5013;51.840;8.276;2023-03-20T08:05:20;25.87;;;20.17;;
9948;SDS011;5013;51.840;8.276;2023-03-20T08:07:46;28.33;;;20.10;;
9948;SDS011;5013;51.840;8.276;2023-03-20T08:10:12;26.23;;;20.23;;
9948;SDS011;5013;51.840;8.276;2023-03-20T08:12:38;29.00;;;22.70;;
9948;SDS011;5013;51.840;8.276;2023-03-20T08:15:03;29.57;;;22.23;;
9948;SDS011;5013;51.840;8.276;2023-03-20T08:17:29;25.97;;;21.30;;
9948;SDS011;5013;51.840;8.276;2023-03-20T08:19:55;26.07;;;21.27;;
9948;SDS011;5013;51.840;8.276;2023-03-20T08:22:20;25.87;;;20.77;;
9948;SDS011;5013;51.840;8.276;2023-03-20T08:24:46;29.10;;;21.00;;
9948;SDS011;5013;51.840;8.276;2023-03-20T08:27:12;28.50;;;20.80;;
9948;SDS011;5013;51.840;8.276;2023-03-20T08:29:37;25.30;;;19.60;;
9948;SDS011;5013;51.840;8.276;2023-03-20T08:32:03;25.83;;;19.87;;
9948;SDS011;5013;51.840;8.276;2023-03-20T08:34:30;27.00;;;20.63;;
9948;SDS011;5013;51.840;8.276;2023-03-20T08:36:56;23.97;;;19.70;;
9948;SDS011;5013;51.840;8.276;2023-03-20T08:39:22;25.87;;;19.97;;
9948;SDS011;5013;51.840;8.276;2023-03-20T08:41:47;24.77;;;19.00;;
9948;SDS011;5013;51.840;8.276;2023-03-20T08:44:13;24.03;;;17.93;;
9948;SDS011;5013;51.840;8.276;2023-03-20T08:46:38;26.83;;;17.23;;
9948;SDS011;5013;51.840;8.276;2023-03-20T08:49:04;21.13;;;15.90;;
9948;SDS011;5013;51.840;8.276;2023-03-20T08:51:31;18.93;;;14.30;;
9948;SDS011;5013;51.840;8.276;2023-03-20T08:53:57;20.97;;;15.43;;
9948;SDS011;5013;51.840;8.276;2023-03-20T08:56:22;20.63;;;15.83;;
9948;SDS011;5013;51.840;8.276;2023-03-20T08:58:48;23.83;;;15.70;;
9948;SDS011;5013;51.840;8.276;2023-03-20T09:01:14;23.03;;;16.50;;
9948;SDS011;5013;51.840;8.276;2023-03-20T09:03:39;17.07;;;14.63;;
9948;SDS011;5013;51.840;8.276;2023-03-20T09:06:06;22.33;;;14.70;;
9948;SDS011;5013;51.840;8.276;2023-03-20T09:08:32;22.90;;;15.67;;
9948;SDS011;5013;51.840;8.276;2023-03-20T09:10:58;19.30;;;14.77;;
9948;SDS011;5013;51.840;8.276;2023-03-20T09:13:24;21.07;;;14.90;;
9948;SDS011;5013;51.840;8.276;2023-03-20T09:15:51;16.33;;;13.70;;
9948;SDS011;5013;51.840;8.276;2023-03-20T09:18:17;24.27;;;14.80;;
9948;SDS011;5013;51.840;8.276;2023-03-20T09:20:44;16.00;;;12.93;;
9948;SDS011;5013;51.840;8.276;2023-03-20T09:23:10;16.13;;;13.23;;
9948;SDS011;5013;51.840;8.276;2023-03-20T09:25:36;17.03;;;13.03;;
9948;SDS011;5013;51.840;8.276;2023-03-20T09:28:02;18.93;;;12.90;;
9948;SDS011;5013;51.840;8.276;2023-03-20T09:30:27;18.90;;;13.13;;
9948;SDS011;5013;51.840;8.276;2023-03-20T09:32:53;14.20;;;12.33;;
9948;SDS011;5013;51.840;8.276;2023-03-20T09:35:19;13.83;;;12.43;;
9948;SDS011;5013;51.840;8.276;2023-03-20T09:37:44;16.97;;;12.73;;
9948;SDS011;5013;51.840;8.276;2023-03-20T09:40:30;14.83;;;10.93;;
9948;SDS011;5013;51.840;8.276;2023-03-20T09:43:16;15.60;;;12.20;;
9948;SDS011;5013;51.840;8.276;2023-03-20T09:45:48;11.97;;;10.47;;
9948;SDS011;5013;51.840;8.276;2023-03-20T09:54:28;18.33;;;10.50;;
9948;SDS011;5013;51.840;8.276;2023-03-20T09:57:04;12.73;;;9.50;;
9948;SDS011;5013;51.840;8.276;2023-03-20T09:59:39;10.53;;;9.47;;
9948;SDS011;5013;51.840;8.276;2023-03-20T10:02:07;12.67;;;10.47;;
9948;SDS011;5013;51.840;8.276;2023-03-20T10:04:48;15.20;;;9.67;;
9948;SDS011;5013;51.840;8.276;2023-03-20T10:07:17;15.47;;;9.53;;
9948;SDS011;5013;51.840;8.276;2023-03-20T10:09:43;14.40;;;10.73;;
9948;SDS011;5013;51.840;8.276;2023-03-20T10:18:00;13.27;;;10.77;;
9948;SDS011;5013;51.840;8.276;2023-03-20T10:25:49;13.13;;;10.63;;
9948;SDS011;5013;51.840;8.276;2023-03-20T10:28:26;14.67;;;10.57;;
9948;SDS011;5013;51.840;8.276;2023-03-20T10:40:00;13.57;;;11.50;;
9948;SDS011;5013;51.840;8.276;2023-03-20T10:42:46;15.27;;;12.20;;
9948;SDS011;5013;51.840;8.276;2023-03-20T10:50:44;15.90;;;12.73;;
9948;SDS011;5013;51.840;8.276;2023-03-20T10:53:26;14.67;;;12.47;;
9948;SDS011;5013;51.840;8.276;2023-03-20T10:55:53;19.00;;;12.93;;
9948;SDS011;5013;51.840;8.276;2023-03-20T10:58:23;13.33;;;11.57;;
9948;SDS011;5013;51.840;8.276;2023-03-20T11:00:52;16.77;;;11.80;;
9948;SDS011;5013;51.840;8.276;2023-03-20T11:03:27;19.87;;;13.60;;
9948;SDS011;5013;51.840;8.276;2023-03-20T11:08:48;14.27;;;10.77;;
9948;SDS011;5013;51.840;8.276;2023-03-20T11:11:23;14.60;;;11.07;;
9948;SDS011;5013;51.840;8.276;2023-03-20T11:13:50;10.83;;;9.40;;
9948;SDS011;5013;51.840;8.276;2023-03-20T11:18:47;11.83;;;9.17;;
9948;SDS011;5013;51.840;8.276;2023-03-20T11:21:18;12.53;;;9.63;;
9948;SDS011;5013;51.840;8.276;2023-03-20T11:23:46;13.37;;;9.50;;
9948;SDS011;5013;51.840;8.276;2023-03-20T11:26:14;11.43;;;8.00;;
9948;SDS011;5013;51.840;8.276;2023-03-20T11:28:46;13.80;;;8.17;;
9948;SDS011;5013;51.840;8.276;2023-03-20T11:31:16;9.60;;;7.53;;
9948;SDS011;5013;51.840;8.276;2023-03-20T11:33:45;14.73;;;7.73;;
9948;SDS011;5013;51.840;8.276;2023-03-20T11:36:26;8.93;;;6.97;;
9948;SDS011;5013;51.840;8.276;2023-03-20T11:38:57;10.47;;;7.30;;
9948;SDS011;5013;51.840;8.276;2023-03-20T11:44:26;12.90;;;6.60;;
9948;SDS011;5013;51.840;8.276;2023-03-20T11:47:00;8.43;;;6.53;;
9948;SDS011;5013;51.840;8.276;2023-03-20T11:54:58;7.80;;;6.63;;
9948;SDS011;5013;51.840;8.276;2023-03-20T12:00:05;8.43;;;6.57;;
9948;SDS011;5013;51.840;8.276;2023-03-20T12:02:34;12.07;;;7.60;;
9948;SDS011;5013;51.840;8.276;2023-03-20T12:05:02;12.03;;;7.47;;
9948;SDS011;5013;51.840;8.276;2023-03-20T12:07:43;10.87;;;7.60;;
9948;SDS011;5013;51.840;8.276;2023-03-20T12:10:14;10.83;;;7.03;;
9948;SDS011;5013;51.840;8.276;2023-03-20T12:12:50;9.20;;;6.40;;
9948;SDS011;5013;51.840;8.276;2023-03-20T12:20:44;9.30;;;6.17;;
9948;SDS011;5013;51.840;8.276;2023-03-20T12:23:31;6.70;;;5.07;;
9948;SDS011;5013;51.840;8.276;2023-03-20T12:26:31;8.80;;;5.80;;
9948;SDS011;5013;51.840;8.276;2023-03-20T12:37:26;12.90;;;6.00;;
9948;SDS011;5013;51.840;8.276;2023-03-20T12:39:53;7.70;;;5.30;;
9948;SDS011;5013;51.840;8.276;2023-03-20T12:45:11;11.07;;;6.23;;
9948;SDS011;5013;51.840;8.276;2023-03-20T12:50:51;13.93;;;5.90;;
9948;SDS011;5013;51.840;8.276;2023-03-20T12:59:02;9.07;;;5.57;;
9948;SDS011;5013;51.840;8.276;2023-03-20T13:01:41;10.57;;;5.07;;
9948;SDS011;5013;51.840;8.276;2023-03-20T13:04:16;10.50;;;4.87;;
9948;SDS011;5013;51.840;8.276;2023-03-20T13:06:59;11.10;;;5.20;;
9948;SDS011;5013;51.840;8.276;2023-03-20T13:12:32;7.03;;;3.93;;
9948;SDS011;5013;51.840;8.276;2023-03-20T13:29:10;7.00;;;3.77;;
9948;SDS011;5013;51.840;8.276;2023-03-20T13:34:26;4.70;;;3.47;;
9948;SDS011;5013;51.840;8.276;2023-03-20T13:37:12;10.43;;;3.10;;
9948;SDS011;5013;51.840;8.276;2023-03-20T13:40:21;10.20;;;3.10;;
9948;SDS011;5013;51.840;8.276;2023-03-20T13:45:43;8.60;;;3.50;;
9948;SDS011;5013;51.840;8.276;2023-03-20T13:48:22;9.37;;;3.80;;
9948;SDS011;5013;51.840;8.276;2023-03-20T13:51:03;7.23;;;3.67;;
9948;SDS011;5013;51.840;8.276;2023-03-20T13:53:56;9.83;;;4.23;;
9948;SDS011;5013;51.840;8.276;2023-03-20T14:02:06;5.17;;;3.53;;
9948;SDS011;5013;51.840;8.276;2023-03-20T14:05:08;6.73;;;3.67;;
9948;SDS011;5013;51.840;8.276;2023-03-20T14:07:43;5.17;;;3.63;;
9948;SDS011;5013;51.840;8.276;2023-03-20T14:13:46;5.83;;;3.90;;
9948;SDS011;5013;51.840;8.276;2023-03-20T14:15:55;6.17;;;4.00;;
9948;SDS011;5013;51.840;8.276;2023-03-20T14:18:24;6.63;;;3.83;;
9948;SDS011;5013;51.840;8.276;2023-03-20T14:20:55;6.07;;;3.80;;
9948;SDS011;5013;51.840;8.276;2023-03-20T14:23:46;9.00;;;4.17;;
9948;SDS011;5013;51.840;8.276;2023-03-20T14:26:26;8.70;;;4.33;;
9948;SDS011;5013;51.840;8.276;2023-03-20T14:36:43;7.63;;;4.07;;
9948;SDS011;5013;51.840;8.276;2023-03-20T14:39:29;9.03;;;4.73;;
9948;SDS011;5013;51.840;8.276;2023-03-20T14:45:23;8.50;;;5.13;;
9948;SDS011;5013;51.840;8.276;2023-03-20T14:50:19;23.20;;;10.67;;
9948;SDS011;5013;51.840;8.276;2023-03-20T14:53:01;51.70;;;23.57;;
9948;SDS011;5013;51.840;8.276;2023-03-20T14:55:45;17.73;;;8.57;;
9948;SDS011;5013;51.840;8.276;2023-03-20T15:01:03;5.27;;;4.20;;
9948;SDS011;5013;51.840;8.276;2023-03-20T15:03:31;7.63;;;4.27;;
9948;SDS011;5013;51.840;8.276;2023-03-20T15:05:58;7.07;;;4.07;;
9948;SDS011;5013;51.840;8.276;2023-03-20T15:08:28;6.23;;;4.20;;
9948;SDS011;5013;51.840;8.276;2023-03-20T15:10:58;4.03;;;3.33;;
9948;SDS011;5013;51.840;8.276;2023-03-20T15:13:30;6.10;;;3.93;;
9948;SDS011;5013;51.840;8.276;2023-03-20T15:16:03;14.87;;;7.53;;
9948;SDS011;5013;51.840;8.276;2023-03-20T15:18:34;20.63;;;9.80;;
9948;SDS011;5013;51.840;8.276;2023-03-20T15:21:12;31.10;;;13.17;;
9948;SDS011;5013;51.840;8.276;2023-03-20T15:23:43;12.60;;;7.87;;
9948;SDS011;5013;51.840;8.276;2023-03-20T15:26:10;6.67;;;4.30;;
9948;SDS011;5013;51.840;8.276;2023-03-20T15:28:39;4.23;;;3.70;;
9948;SDS011;5013;51.840;8.276;2023-03-20T15:31:11;7.30;;;4.10;;
9948;SDS011;5013;51.840;8.276;2023-03-20T15:33:48;6.63;;;4.40;;
9948;SDS011;5013;51.840;8.276;2023-03-20T15:36:15;5.70;;;4.20;;
9948;SDS011;5013;51.840;8.276;2023-03-20T15:38:43;8.90;;;4.13;;
9948;SDS011;5013;51.840;8.276;2023-03-20T15:41:23;7.53;;;5.37;;
9948;SDS011;5013;51.840;8.276;2023-03-20T15:43:51;6.93;;;4.20;;
9948;SDS011;5013;51.840;8.276;2023-03-20T15:46:17;7.00;;;4.63;;
9948;SDS011;5013;51.840;8.276;2023-03-20T15:48:49;7.60;;;4.33;;
9948;SDS011;5013;51.840;8.276;2023-03-20T15:51:15;8.27;;;4.43;;
9948;SDS011;5013;51.840;8.276;2023-03-20T15:53:43;5.13;;;4.50;;
9948;SDS011;5013;51.840;8.276;2023-03-20T15:56:15;8.13;;;4.73;;
9948;SDS011;5013;51.840;8.276;2023-03-20T15:58:43;9.07;;;5.07;;
9948;SDS011;5013;51.840;8.276;2023-03-20T16:01:11;8.43;;;4.57;;
9948;SDS011;5013;51.840;8.276;2023-03-20T16:03:41;10.60;;;5.33;;
9948;SDS011;5013;51.840;8.276;2023-03-20T16:06:08;5.87;;;4.63;;
9948;SDS011;5013;51.840;8.276;2023-03-20T16:08:35;8.53;;;6.10;;
9948;SDS011;5013;51.840;8.276;2023-03-20T16:11:12;9.37;;;5.03;;
9948;SDS011;5013;51.840;8.276;2023-03-20T16:13:40;6.27;;;5.27;;
9948;SDS011;5013;51.840;8.276;2023-03-20T16:16:10;7.03;;;6.07;;
9948;SDS011;5013;51.840;8.276;2023-03-20T16:18:39;7.57;;;6.27;;
9948;SDS011;5013;51.840;8.276;2023-03-20T16:21:06;10.30;;;7.70;;
9948;SDS011;5013;51.840;8.276;2023-03-20T16:23:40;9.93;;;7.60;;
9948;SDS011;5013;51.840;8.276;2023-03-20T16:26:13;9.10;;;5.87;;
9948;SDS011;5013;51.840;8.276;2023-03-20T16:28:41;9.17;;;8.13;;
9948;SDS011;5013;51.840;8.276;2023-03-20T16:33:43;11.60;;;10.40;;
9948;SDS011;5013;51.840;8.276;2023-03-20T16:36:17;11.30;;;7.87;;
9948;SDS011;5013;51.840;8.276;2023-03-20T16:39:20;16.07;;;12.27;;
9948;SDS011;5013;51.840;8.276;2023-03-20T16:41:41;15.57;;;12.83;;
9948;SDS011;5013;51.840;8.276;2023-03-20T16:44:16;17.47;;;13.00;;
9948;SDS011;5013;51.840;8.276;2023-03-20T16:46:57;14.23;;;9.93;;
9948;SDS011;5013;51.840;8.276;2023-03-20T16:51:55;11.57;;;10.43;;
9948;SDS011;5013;51.840;8.276;2023-03-20T16:54:21;11.73;;;10.50;;
9948;SDS011;5013;51.840;8.276;2023-03-20T16:56:50;12.60;;;10.90;;
9948;SDS011;5013;51.840;8.276;2023-03-20T16:59:17;12.33;;;10.80;;
9948;SDS011;5013;51.840;8.276;2023-03-20T17:01:45;12.30;;;11.10;;
9948;SDS011;5013;51.840;8.276;2023-03-20T17:06:59;14.40;;;10.97;;
9948;SDS011;5013;51.840;8.276;2023-03-20T17:09:32;14.67;;;12.60;;
9948;SDS011;5013;51.840;8.276;2023-03-20T17:12:02;14.40;;;12.87;;
9948;SDS011;5013;51.840;8.276;2023-03-20T17:14:35;17.73;;;12.90;;
9948;SDS011;5013;51.840;8.276;2023-03-20T17:17:00;18.40;;;12.37;;
9948;SDS011;5013;51.840;8.276;2023-03-20T17:19:26;13.83;;;12.43;;
9948;SDS011;5013;51.840;8.276;2023-03-20T17:21:52;14.20;;;12.80;;
9948;SDS011;5013;51.840;8.276;2023-03-20T17:24:17;15.47;;;13.33;;
9948;SDS011;5013;51.840;8.276;2023-03-20T17:26:44;13.93;;;12.53;;
9948;SDS011;5013;51.840;8.276;2023-03-20T17:29:18;14.43;;;12.40;;
9948;SDS011;5013;51.840;8.276;2023-03-20T17:31:44;12.90;;;11.53;;
9948;SDS011;5013;51.840;8.276;2023-03-20T17:34:11;12.13;;;10.87;;
9948;SDS011;5013;51.840;8.276;2023-03-20T17:36:38;15.13;;;12.80;;
9948;SDS011;5013;51.840;8.276;2023-03-20T17:39:04;13.67;;;12.17;;
9948;SDS011;5013;51.840;8.276;2023-03-20T17:41:30;12.67;;;11.37;;
9948;SDS011;5013;51.840;8.276;2023-03-20T17:43:56;13.87;;;11.07;;
9948;SDS011;5013;51.840;8.276;2023-03-20T17:46:26;15.60;;;13.00;;
9948;SDS011;5013;51.840;8.276;2023-03-20T17:49:01;24.37;;;18.90;;
9948;SDS011;5013;51.840;8.276;2023-03-20T17:51:37;23.97;;;18.97;;
9948;SDS011;5013;51.840;8.276;2023-03-20T17:54:03;16.63;;;11.63;;
9948;SDS011;5013;51.840;8.276;2023-03-20T17:56:29;16.33;;;13.53;;
9948;SDS011;5013;51.840;8.276;2023-03-20T17:58:59;21.10;;;18.97;;
9948;SDS011;5013;51.840;8.276;2023-03-20T18:01:27;12.57;;;10.07;;
9948;SDS011;5013;51.840;8.276;2023-03-20T18:03:53;17.17;;;10.83;;